Time;durP1;ratioP1;P1;durP2;ratioP2;P2;SDS_P1;SDS_P2;PMS_P1;PMS_P2;Temp;Humidity;BMP_temperature;BMP_pressure;BME280_temperature;BME280_humidity;BME280_pressure;Samples;Min_cycle;Max_cycle;Signal;HPM_P1;HPM_P2
2021/01/18 00:00:32;;;;;;;8.57;5.25;;;;;;;-144.78;100.00;59851.00;5024323;28;20700;-69
2021/01/18 00:02:59;;;;;;;7.20;4.50;;;;;;;-144.78;100.00;59851.00;5022852;28;20237;-69
2021/01/18 00:05:26;;;;;;;14.43;5.30;;;;;;;-144.78;100.00;59851.00;5031751;28;20203;-70
2021/01/18 00:07:53;;;;;;;12.05;6.10;;;;;;;-144.78;100.00;59851.00;5029743;28;20214;-70
2021/01/18 00:10:21;;;;;;;11.48;4.70;;;;;;;-144.78;100.00;59851.00;5025137;28;20202;-69
2021/01/18 00:12:48;;;;;;;5.50;4.43;;;;;;;-144.78;100.00;59851.00;5024982;28;20199;-70
2021/01/18 00:15:16;;;;;;;8.55;4.45;;;;;;;-144.78;100.00;59851.00;5027182;28;20229;-70
2021/01/18 00:17:43;;;;;;;13.02;4.90;;;;;;;-144.78;100.00;59851.00;5028513;28;20290;-69
2021/01/18 00:20:12;;;;;;;12.05;5.60;;;;;;;-144.78;100.00;59851.00;5022476;28;20621;-69
2021/01/18 00:22:39;;;;;;;9.65;5.10;;;;;;;-144.78;100.00;59851.00;5031804;28;20664;-69
2021/01/18 00:25:22;;;;;;;11.02;5.28;;;;;;;-144.78;100.00;59851.00;5030955;28;20223;-69
2021/01/18 00:27:50;;;;;;;5.30;3.75;;;;;;;-144.78;100.00;59851.00;4951311;28;20214;-69
2021/01/18 00:30:19;;;;;;;7.90;4.85;;;;;;;-144.78;100.00;59851.00;4950849;28;20201;-70
2021/01/18 00:32:46;;;;;;;13.48;5.20;;;;;;;-144.78;100.00;59851.00;4951459;29;20660;-70
2021/01/18 00:35:14;;;;;;;10.35;6.88;;;;;;;-144.78;100.00;59851.00;4948762;28;20246;-70
2021/01/18 00:37:42;;;;;;;9.77;5.13;;;;;;;-144.78;100.00;59851.00;4944387;28;20203;-70
2021/01/18 00:40:09;;;;;;;11.95;6.13;;;;;;;-144.78;100.00;59851.00;4953910;28;20204;-70
2021/01/18 00:42:36;;;;;;;9.80;5.88;;;;;;;-144.78;100.00;59851.00;4955220;28;20289;-69
2021/01/18 00:45:03;;;;;;;8.90;5.10;;;;;;;-144.78;100.00;59851.00;4946330;28;20200;-69
2021/01/18 00:47:29;;;;;;;9.65;5.38;;;;;;;-144.78;100.00;59851.00;4948423;28;20201;-70
2021/01/18 00:49:56;;;;;;;9.02;5.10;;;;;;;-144.78;100.00;59851.00;4951877;28;20319;-69
2021/01/18 00:52:23;;;;;;;14.15;5.50;;;;;;;-144.78;100.00;59851.00;4955187;28;20204;-70
2021/01/18 00:54:49;;;;;;;7.82;4.88;;;;;;;-144.78;100.00;59851.00;4954808;28;20217;-69
2021/01/18 00:57:15;;;;;;;8.93;4.72;;;;;;;-144.78;100.00;59851.00;4954134;28;20264;-70
2021/01/18 00:59:42;;;;;;;7.68;4.28;;;;;;;-144.78;100.00;59851.00;4955012;28;20216;-69
2021/01/18 01:02:08;;;;;;;7.95;4.28;;;;;;;-144.78;100.00;59851.00;4947032;28;20200;-70
2021/01/18 01:04:34;;;;;;;7.80;3.95;;;;;;;-144.78;100.00;59851.00;4976451;28;20257;-70
2021/01/18 01:07:03;;;;;;;7.30;3.85;;;;;;;-144.78;100.00;59851.00;5026475;28;20289;-70
2021/01/18 01:09:30;;;;;;;8.48;5.28;;;;;;;-144.78;100.00;59851.00;5015788;28;20191;-68
2021/01/18 01:11:57;;;;;;;6.78;5.15;;;;;;;-144.78;100.00;59851.00;5022861;28;20208;-69
2021/01/18 01:14:23;;;;;;;12.60;4.88;;;;;;;-144.78;100.00;59851.00;5034565;28;20251;-70
2021/01/18 01:16:49;;;;;;;8.50;4.60;;;;;;;-144.78;100.00;59851.00;5026725;28;20190;-69
2021/01/18 01:19:15;;;;;;;10.05;4.90;;;;;;;-144.78;100.00;59851.00;5026187;28;20222;-69
2021/01/18 01:21:48;;;;;;;8.45;4.20;;;;;;;-144.78;100.00;59851.00;5034731;28;20750;-69
2021/01/18 01:24:15;;;;;;;6.28;4.00;;;;;;;-144.78;100.00;59851.00;5034800;28;20631;-69
2021/01/18 01:26:42;;;;;;;8.23;3.70;;;;;;;-144.78;100.00;59851.00;5034336;28;20217;-69
2021/01/18 01:29:08;;;;;;;7.18;3.38;;;;;;;-144.78;100.00;59851.00;5034119;28;20230;-70
2021/01/18 01:31:34;;;;;;;5.50;4.13;;;;;;;-144.78;100.00;59851.00;5030976;28;20785;-70
2021/01/18 01:34:01;;;;;;;16.00;5.63;;;;;;;-144.78;100.00;59851.00;5029894;28;20201;-70
2021/01/18 01:36:27;;;;;;;5.93;3.33;;;;;;;-144.78;100.00;59851.00;5031419;28;20226;-70
2021/01/18 01:38:53;;;;;;;11.43;4.30;;;;;;;-144.78;100.00;59851.00;5014979;28;20568;-72
2021/01/18 01:41:20;;;;;;;4.90;3.05;;;;;;;-144.78;100.00;59851.00;5024125;28;20237;-70
2021/01/18 01:43:47;;;;;;;16.75;3.45;;;;;;;-144.78;100.00;59851.00;5025283;28;20559;-69
2021/01/18 01:46:14;;;;;;;9.13;4.65;;;;;;;-144.78;100.00;59851.00;5033813;28;20590;-69
2021/01/18 01:48:41;;;;;;;4.13;3.08;;;;;;;-144.78;100.00;59851.00;5033080;28;20717;-70
2021/01/18 01:51:08;;;;;;;6.30;4.15;;;;;;;-144.78;100.00;59851.00;5018112;28;20330;-70
2021/01/18 01:53:37;;;;;;;3.70;3.40;;;;;;;-144.78;100.00;59851.00;5033130;28;20229;-68
2021/01/18 01:56:03;;;;;;;7.68;3.80;;;;;;;-144.78;100.00;59851.00;5034015;28;20283;-71
2021/01/18 01:58:30;;;;;;;7.05;4.18;;;;;;;-144.78;100.00;59851.00;5034155;28;20285;-69
2021/01/18 02:00:59;;;;;;;7.65;3.67;;;;;;;-144.78;100.00;59851.00;5025409;28;20555;-69
2021/01/18 02:03:33;;;;;;;7.57;3.75;;;;;;;-144.78;100.00;59851.00;5025956;28;20191;-69
2021/01/18 02:05:59;;;;;;;3.90;2.65;;;;;;;-144.78;100.00;59851.00;5028376;28;20244;-66
2021/01/18 02:08:26;;;;;;;4.13;3.50;;;;;;;-144.78;100.00;59851.00;5033417;28;20224;-70
2021/01/18 02:10:52;;;;;;;14.32;4.15;;;;;;;-144.78;100.00;59851.00;5029349;28;20264;-70
2021/01/18 02:13:30;;;;;;;6.25;4.00;;;;;;;-144.78;100.00;59851.00;5022226;28;20277;-68
2021/01/18 02:16:05;;;;;;;3.80;3.00;;;;;;;-144.78;100.00;59851.00;5027092;28;20235;-70
2021/01/18 02:18:54;;;;;;;7.28;3.80;;;;;;;-144.78;100.00;59851.00;5025716;28;20235;-68
2021/01/18 02:22:01;;;;;;;9.48;3.97;;;;;;;-144.78;100.00;59851.00;5024935;28;20190;-68
2021/01/18 02:25:04;;;;;;;5.88;2.95;;;;;;;-144.78;100.00;59851.00;5022098;28;20205;-68
2021/01/18 02:28:08;;;;;;;8.43;3.85;;;;;;;-144.78;100.00;59851.00;5022236;28;20217;-68
2021/01/18 02:31:13;;;;;;;2.47;2.08;;;;;;;-144.78;100.00;59851.00;5012356;28;20284;-68
2021/01/18 02:34:09;;;;;;;5.05;3.38;;;;;;;-144.78;100.00;59851.00;4973745;28;20209;-69
2021/01/18 02:36:44;;;;;;;7.70;3.50;;;;;;;-144.78;100.00;59851.00;4996145;28;20625;-68
2021/01/18 02:39:20;;;;;;;4.22;3.10;;;;;;;-144.78;100.00;59851.00;5006237;28;20298;-67
2021/01/18 02:41:54;;;;;;;4.55;3.42;;;;;;;-144.78;100.00;59851.00;5002450;28;20678;-68
2021/01/18 02:44:22;;;;;;;6.22;3.72;;;;;;;-144.78;100.00;59851.00;5002730;28;20238;-69
2021/01/18 02:46:50;;;;;;;6.05;3.45;;;;;;;-144.78;100.00;59851.00;5002709;28;20209;-71
2021/01/18 02:49:17;;;;;;;8.02;3.72;;;;;;;-144.78;100.00;59851.00;5001625;28;20953;-71
2021/01/18 02:51:48;;;;;;;6.55;4.45;;;;;;;-144.78;100.00;59851.00;5013607;28;20624;-69
2021/01/18 02:54:14;;;;;;;8.43;3.97;;;;;;;-144.78;100.00;59851.00;5007287;28;20277;-71
2021/01/18 02:56:53;;;;;;;5.78;4.20;;;;;;;-144.78;100.00;59851.00;5003775;28;20225;-68
2021/01/18 02:59:20;;;;;;;7.22;5.07;;;;;;;-144.78;100.00;59851.00;5012778;28;20191;-71
2021/01/18 03:02:02;;;;;;;6.15;2.92;;;;;;;-144.78;100.00;59851.00;5002550;28;20199;-70
2021/01/18 03:04:41;;;;;;;5.97;3.33;;;;;;;-144.78;100.00;59851.00;5010435;28;20191;-71
2021/01/18 03:07:17;;;;;;;2.50;2.30;;;;;;;-144.78;100.00;59851.00;5007622;28;20230;-69
2021/01/18 03:09:53;;;;;;;10.77;4.70;;;;;;;-144.78;100.00;59851.00;5005134;28;20202;-70
2021/01/18 03:12:23;;;;;;;13.75;4.65;;;;;;;-144.78;100.00;59851.00;5000645;28;20190;-71
2021/01/18 03:14:54;;;;;;;12.35;4.45;;;;;;;-144.78;100.00;59851.00;5004579;28;20318;-71
2021/01/18 03:17:25;;;;;;;9.80;3.28;;;;;;;-144.78;100.00;59851.00;5013276;28;20707;-71
2021/01/18 03:19:53;;;;;;;6.20;3.30;;;;;;;-144.78;100.00;59851.00;5012380;28;20246;-70
2021/01/18 03:22:24;;;;;;;6.30;2.60;;;;;;;-144.78;100.00;59851.00;5013397;28;20244;-71
2021/01/18 03:24:50;;;;;;;14.80;4.15;;;;;;;-144.78;100.00;59851.00;5010969;28;20199;-71
2021/01/18 03:27:17;;;;;;;4.57;3.00;;;;;;;-144.78;100.00;59851.00;5007627;28;20284;-69
2021/01/18 03:29:43;;;;;;;4.60;2.38;;;;;;;-144.78;100.00;59851.00;5013318;28;20313;-70
2021/01/18 03:32:10;;;;;;;10.60;3.83;;;;;;;-144.78;100.00;59851.00;5025844;28;20236;-71
2021/01/18 03:34:36;;;;;;;5.13;3.35;;;;;;;-144.78;100.00;59851.00;5032778;28;20651;-69
2021/01/18 03:37:03;;;;;;;7.10;3.67;;;;;;;-144.78;100.00;59851.00;5029374;28;20300;-70
2021/01/18 03:39:30;;;;;;;5.88;3.90;;;;;;;-144.78;100.00;59851.00;5013137;28;20201;-70
2021/01/18 03:41:56;;;;;;;6.50;3.42;;;;;;;-144.78;100.00;59851.00;5031578;28;20222;-70
2021/01/18 03:44:23;;;;;;;4.85;3.70;;;;;;;-144.78;100.00;59851.00;5032704;28;20686;-70
2021/01/18 03:46:49;;;;;;;21.33;2.72;;;;;;;-144.78;100.00;59851.00;5032160;28;20206;-71
2021/01/18 03:49:16;;;;;;;3.10;2.78;;;;;;;-144.78;100.00;59851.00;5032559;28;20234;-70
2021/01/18 03:51:42;;;;;;;4.50;2.97;;;;;;;-144.78;100.00;59851.00;5032251;28;20205;-71
2021/01/18 03:54:08;;;;;;;8.05;4.18;;;;;;;-144.78;100.00;59851.00;5032436;28;20191;-69
2021/01/18 03:56:39;;;;;;;11.95;3.35;;;;;;;-144.78;100.00;59851.00;5032110;28;20231;-71
2021/01/18 03:59:05;;;;;;;8.63;3.03;;;;;;;-144.78;100.00;59851.00;5021096;28;20203;-70
2021/01/18 04:01:37;;;;;;;7.30;4.10;;;;;;;-144.78;100.00;59851.00;5021916;28;20246;-70
2021/01/18 04:04:04;;;;;;;3.33;2.63;;;;;;;-144.78;100.00;59851.00;5021444;28;20193;-70
2021/01/18 04:06:34;;;;;;;3.20;2.17;;;;;;;-144.78;100.00;59851.00;5027023;28;20194;-70
2021/01/18 04:09:00;;;;;;;5.80;3.25;;;;;;;-144.78;100.00;59851.00;5031830;28;20241;-70
2021/01/18 04:11:27;;;;;;;8.25;3.20;;;;;;;-144.78;100.00;59851.00;5034659;28;20653;-70
2021/01/18 04:13:54;;;;;;;6.00;3.80;;;;;;;-144.78;100.00;59851.00;5036289;28;20561;-70
2021/01/18 04:16:20;;;;;;;5.20;3.05;;;;;;;-144.78;100.00;59851.00;5027988;28;20202;-70
2021/01/18 04:18:47;;;;;;;7.68;3.60;;;;;;;-144.78;100.00;59851.00;5028511;28;20667;-69
2021/01/18 04:21:16;;;;;;;10.40;4.65;;;;;;;-144.78;100.00;59851.00;5036068;28;20283;-69
2021/01/18 04:23:42;;;;;;;3.92;2.42;;;;;;;-144.78;100.00;59851.00;5036343;28;20202;-70
2021/01/18 04:26:08;;;;;;;9.68;4.25;;;;;;;-144.78;100.00;59851.00;5028022;28;20611;-69
2021/01/18 04:28:35;;;;;;;7.63;3.55;;;;;;;-144.78;100.00;59851.00;5035976;28;20233;-70
2021/01/18 04:31:03;;;;;;;5.88;3.70;;;;;;;-144.78;100.00;59851.00;5027829;28;20244;-71
2021/01/18 04:33:29;;;;;;;5.75;2.95;;;;;;;-144.78;100.00;59851.00;5032203;28;20302;-70
2021/01/18 04:35:56;;;;;;;6.10;2.72;;;;;;;-144.78;100.00;59851.00;5024932;28;20236;-71
2021/01/18 04:38:23;;;;;;;7.13;3.42;;;;;;;-144.78;100.00;59851.00;5024312;28;20228;-70
2021/01/18 04:40:49;;;;;;;9.00;3.88;;;;;;;-144.78;100.00;59851.00;5024170;28;20221;-71
2021/01/18 04:43:17;;;;;;;4.13;3.40;;;;;;;-144.78;100.00;59851.00;5035911;28;20202;-68
2021/01/18 04:45:44;;;;;;;7.53;4.20;;;;;;;-144.78;100.00;59851.00;5028119;28;20190;-70
2021/01/18 04:48:12;;;;;;;10.88;3.78;;;;;;;-144.78;100.00;59851.00;5033475;28;20230;-69
2021/01/18 04:50:38;;;;;;;10.48;3.35;;;;;;;-144.78;100.00;59851.00;5029617;28;20210;-70
2021/01/18 04:53:13;;;;;;;5.85;2.95;;;;;;;-144.78;100.00;59851.00;5034739;28;20224;-68
2021/01/18 04:55:54;;;;;;;6.70;3.05;;;;;;;-144.78;100.00;59851.00;5022230;28;20621;-71
2021/01/18 04:58:20;;;;;;;7.47;3.40;;;;;;;-144.78;100.00;59851.00;5024101;28;20265;-70
2021/01/18 05:00:48;;;;;;;4.78;3.55;;;;;;;-144.78;100.00;59851.00;5024196;28;20723;-69
2021/01/18 05:03:18;;;;;;;3.00;2.53;;;;;;;-144.78;100.00;59851.00;5033992;28;20202;-69
2021/01/18 05:06:05;;;;;;;6.10;2.80;;;;;;;-144.78;100.00;59851.00;5035262;28;20532;-70
2021/01/18 05:09:07;;;;;;;3.10;2.50;;;;;;;-144.78;100.00;59851.00;5027929;28;20213;-70
2021/01/18 05:11:33;;;;;;;4.00;2.67;;;;;;;-144.78;100.00;59851.00;5030731;28;20208;-71
2021/01/18 05:14:00;;;;;;;9.35;3.55;;;;;;;-144.78;100.00;59851.00;5031735;28;20289;-70
2021/01/18 05:16:33;;;;;;;5.90;3.72;;;;;;;-144.78;100.00;59851.00;5032091;28;20342;-70
2021/01/18 05:19:07;;;;;;;4.38;2.72;;;;;;;-144.78;100.00;59851.00;5031465;28;20603;-70
2021/01/18 05:21:34;;;;;;;6.75;3.20;;;;;;;-144.78;100.00;59851.00;5027447;28;20200;-69
2021/01/18 05:24:00;;;;;;;4.50;3.22;;;;;;;-144.78;100.00;59851.00;5027439;28;20236;-68
2021/01/18 05:26:27;;;;;;;8.32;3.40;;;;;;;-144.78;100.00;59851.00;5035003;28;20707;-71
2021/01/18 05:28:55;;;;;;;7.45;4.03;;;;;;;-144.78;100.00;59851.00;5035048;28;20241;-69
2021/01/18 05:31:33;;;;;;;5.28;3.60;;;;;;;-144.78;100.00;59851.00;5033730;28;20563;-69
2021/01/18 05:34:01;;;;;;;6.70;3.15;;;;;;;-144.78;100.00;59851.00;5021874;28;20639;-70
2021/01/18 05:36:36;;;;;;;3.92;3.03;;;;;;;-144.78;100.00;59851.00;5026506;28;20218;-71
2021/01/18 05:39:19;;;;;;;5.00;3.60;;;;;;;-144.78;100.00;59851.00;5035405;28;20212;-70
2021/01/18 05:41:47;;;;;;;12.23;3.33;;;;;;;-144.78;100.00;59851.00;5032071;28;20195;-70
2021/01/18 05:44:14;;;;;;;3.65;3.30;;;;;;;-144.78;100.00;59851.00;5030031;28;20196;-69
2021/01/18 05:46:42;;;;;;;11.55;4.00;;;;;;;-144.78;100.00;59851.00;5034640;28;20590;-70
2021/01/18 05:49:11;;;;;;;5.82;3.78;;;;;;;-144.78;100.00;59851.00;5030261;28;20214;-71
2021/01/18 05:51:38;;;;;;;8.38;4.47;;;;;;;-144.78;100.00;59851.00;5031503;28;20261;-69
2021/01/18 05:54:07;;;;;;;8.75;4.00;;;;;;;-144.78;100.00;59851.00;5027685;28;20258;-70
2021/01/18 05:56:44;;;;;;;6.53;3.63;;;;;;;-144.78;100.00;59851.00;5034709;28;20619;-70
2021/01/18 05:59:17;;;;;;;6.82;3.42;;;;;;;-144.78;100.00;59851.00;5027004;28;20222;-69
2021/01/18 06:01:44;;;;;;;3.88;3.38;;;;;;;-144.78;100.00;59851.00;5026384;28;20277;-70
2021/01/18 06:04:12;;;;;;;4.57;3.47;;;;;;;-144.78;100.00;59851.00;5026191;28;20241;-70
2021/01/18 06:06:40;;;;;;;5.00;3.20;;;;;;;-144.78;100.00;59851.00;5019390;28;20274;-69
2021/01/18 06:09:08;;;;;;;7.03;3.53;;;;;;;-144.78;100.00;59851.00;5016877;28;20690;-69
2021/01/18 06:11:35;;;;;;;4.75;3.13;;;;;;;-144.78;100.00;59851.00;5034163;28;20629;-69
2021/01/18 06:14:02;;;;;;;7.78;4.25;;;;;;;-144.78;100.00;59851.00;5033643;28;20324;-70
2021/01/18 06:16:30;;;;;;;8.30;3.60;;;;;;;-144.78;100.00;59851.00;5029968;28;20218;-70
2021/01/18 06:19:08;;;;;;;6.03;4.07;;;;;;;-144.78;100.00;59851.00;5034605;28;20196;-70
2021/01/18 06:21:36;;;;;;;4.50;2.72;;;;;;;-144.78;100.00;59851.00;5034332;28;20225;-70
2021/01/18 06:24:27;;;;;;;7.70;3.25;;;;;;;-144.78;100.00;59851.00;5034331;28;20641;-70
2021/01/18 06:26:54;;;;;;;5.22;3.47;;;;;;;-144.78;100.00;59851.00;5034114;28;20693;-70
2021/01/18 06:29:37;;;;;;;9.95;3.78;;;;;;;-144.78;100.00;59851.00;5033884;28;20341;-71
2021/01/18 06:32:04;;;;;;;3.60;2.53;;;;;;;-144.78;100.00;59851.00;5033710;28;20248;-70
2021/01/18 06:34:31;;;;;;;5.00;3.47;;;;;;;-144.78;100.00;59851.00;5031110;28;20250;-69
2021/01/18 06:36:59;;;;;;;5.10;3.40;;;;;;;-144.78;100.00;59851.00;5018617;28;20582;-70
2021/01/18 06:39:26;;;;;;;5.50;3.65;;;;;;;-144.78;100.00;59851.00;5033413;28;20182;-69
2021/01/18 06:41:57;;;;;;;5.82;4.30;;;;;;;-144.78;100.00;59851.00;5033707;28;20301;-70
2021/01/18 06:44:37;;;;;;;9.00;4.18;;;;;;;-144.78;100.00;59851.00;5026350;28;20595;-70
2021/01/18 06:47:25;;;;;;;4.95;2.90;;;;;;;-144.78;100.00;59851.00;5025883;28;20275;-71
2021/01/18 06:49:53;;;;;;;7.07;3.78;;;;;;;-144.78;100.00;59851.00;5032849;28;20210;-71
2021/01/18 06:52:23;;;;;;;5.45;3.60;;;;;;;-144.78;100.00;59851.00;5032883;28;20311;-71
2021/01/18 06:54:58;;;;;;;7.32;3.75;;;;;;;-144.78;100.00;59851.00;5032744;28;20208;-69
2021/01/18 06:57:57;;;;;;;15.35;4.10;;;;;;;-144.78;100.00;59851.00;5027267;28;20203;-70
2021/01/18 07:00:24;;;;;;;5.72;3.58;;;;;;;-144.78;100.00;59851.00;4991583;28;20205;-69
2021/01/18 07:03:07;;;;;;;8.88;3.65;;;;;;;-144.78;100.00;59851.00;5029602;28;20238;-70
2021/01/18 07:05:35;;;;;;;6.35;4.45;;;;;;;-144.78;100.00;59851.00;5013406;28;20283;-70
2021/01/18 07:08:17;;;;;;;8.98;4.07;;;;;;;-144.78;100.00;59851.00;5022594;28;20613;-70
2021/01/18 07:10:47;;;;;;;5.40;3.25;;;;;;;-144.78;100.00;59851.00;5032108;28;20298;-71
2021/01/18 07:13:14;;;;;;;7.38;3.60;;;;;;;-144.78;100.00;59851.00;5030551;28;20223;-71
2021/01/18 07:15:41;;;;;;;8.68;3.78;;;;;;;-144.78;100.00;59851.00;5032773;28;20229;-71
2021/01/18 07:18:10;;;;;;;9.70;3.70;;;;;;;-144.78;100.00;59851.00;5033203;28;20664;-69
2021/01/18 07:20:41;;;;;;;4.15;3.20;;;;;;;-144.78;100.00;59851.00;5033429;28;20673;-70
2021/01/18 07:23:27;;;;;;;7.13;3.33;;;;;;;-144.78;100.00;59851.00;5032930;28;20242;-69
2021/01/18 07:26:46;;;;;;;9.32;3.50;;;;;;;-144.78;100.00;59851.00;5032918;28;20292;-70
2021/01/18 07:29:15;;;;;;;10.70;4.40;;;;;;;-144.78;100.00;59851.00;5008653;28;20290;-71
2021/01/18 07:31:45;;;;;;;11.00;3.63;;;;;;;-144.78;100.00;59851.00;5032710;28;20544;-70
2021/01/18 07:34:13;;;;;;;6.03;3.70;;;;;;;-144.78;100.00;59851.00;5032651;28;20900;-71
2021/01/18 07:36:40;;;;;;;4.40;3.42;;;;;;;-144.78;100.00;59851.00;5032757;28;20219;-70
2021/01/18 07:39:22;;;;;;;8.07;4.13;;;;;;;-144.78;100.00;59851.00;5032495;28;20257;-70
2021/01/18 07:41:48;;;;;;;10.18;4.35;;;;;;;-144.78;100.00;59851.00;5032623;28;20237;-70
2021/01/18 07:44:35;;;;;;;6.07;3.95;;;;;;;-144.78;100.00;59851.00;5032607;28;20239;-71
2021/01/18 07:47:03;;;;;;;8.13;3.80;;;;;;;-144.78;100.00;59851.00;5032631;28;20269;-72
2021/01/18 07:49:40;;;;;;;5.32;3.55;;;;;;;-144.78;100.00;59851.00;5032503;28;20215;-71
2021/01/18 07:52:20;;;;;;;8.20;5.10;;;;;;;-144.78;100.00;59851.00;5032875;28;20210;-71
2021/01/18 07:54:47;;;;;;;6.15;4.25;;;;;;;-144.78;100.00;59851.00;5032371;28;20189;-69
2021/01/18 07:57:35;;;;;;;8.55;4.43;;;;;;;-144.78;100.00;59851.00;5032478;28;20698;-70
2021/01/18 08:00:26;;;;;;;13.02;4.60;;;;;;;-144.78;100.00;59851.00;5032825;28;20191;-70
2021/01/18 08:02:54;;;;;;;8.02;4.15;;;;;;;-144.78;100.00;59851.00;5032955;28;20195;-70
2021/01/18 08:05:23;;;;;;;5.85;4.38;;;;;;;-144.78;100.00;59851.00;5033227;28;20665;-70
2021/01/18 08:08:03;;;;;;;7.03;4.40;;;;;;;-144.78;100.00;59851.00;5032881;28;20227;-70
2021/01/18 08:11:02;;;;;;;4.97;3.58;;;;;;;-144.78;100.00;59851.00;5032978;28;20656;-70
2021/01/18 08:13:54;;;;;;;5.75;4.10;;;;;;;-144.78;100.00;59851.00;4971856;28;20200;-70
2021/01/18 08:16:25;;;;;;;7.85;4.32;;;;;;;-144.78;100.00;59851.00;5029745;28;20227;-69
2021/01/18 08:19:07;;;;;;;5.22;3.78;;;;;;;-144.78;100.00;59851.00;5032689;28;20569;-70
2021/01/18 08:21:54;;;;;;;12.90;3.90;;;;;;;-144.78;100.00;59851.00;5032263;28;20263;-71
2021/01/18 08:24:52;;;;;;;4.22;3.35;;;;;;;-144.78;100.00;59851.00;5032479;28;20191;-71
2021/01/18 08:27:39;;;;;;;9.10;4.40;;;;;;;-144.78;100.00;59851.00;5032299;28;20208;-71
2021/01/18 08:30:41;;;;;;;6.72;4.05;;;;;;;-144.78;100.00;59851.00;5012592;28;20278;-69
2021/01/18 08:33:18;;;;;;;8.07;4.32;;;;;;;-144.78;100.00;59851.00;5012881;28;20190;-70
2021/01/18 08:35:47;;;;;;;5.25;3.08;;;;;;;-144.78;100.00;59851.00;5012304;28;20221;-71
2021/01/18 08:38:28;;;;;;;6.13;3.72;;;;;;;-144.78;100.00;59851.00;5012275;28;20213;-70
2021/01/18 08:41:02;;;;;;;9.65;3.28;;;;;;;-144.78;100.00;59851.00;5012637;28;20277;-71
2021/01/18 08:43:49;;;;;;;11.55;4.45;;;;;;;-144.78;100.00;59851.00;5012281;28;20219;-71
2021/01/18 08:46:31;;;;;;;10.85;4.20;;;;;;;-144.78;100.00;59851.00;5012415;28;20208;-70
2021/01/18 08:49:23;;;;;;;6.70;4.50;;;;;;;-144.78;100.00;59851.00;5012152;28;20213;-70
2021/01/18 08:51:51;;;;;;;8.13;4.38;;;;;;;-144.78;100.00;59851.00;5011733;28;20209;-69
2021/01/18 08:54:31;;;;;;;6.78;4.03;;;;;;;-144.78;100.00;59851.00;5012021;28;20649;-70
2021/01/18 08:57:18;;;;;;;5.20;3.80;;;;;;;-144.78;100.00;59851.00;5013316;28;20230;-69
2021/01/18 08:59:46;;;;;;;6.45;3.80;;;;;;;-144.78;100.00;59851.00;5016142;28;20234;-69
2021/01/18 09:02:18;;;;;;;6.28;3.88;;;;;;;-144.78;100.00;59851.00;5015647;28;20218;-70
2021/01/18 09:04:45;;;;;;;8.65;4.70;;;;;;;-144.78;100.00;59851.00;5016086;28;20200;-69
2021/01/18 09:07:11;;;;;;;4.45;3.08;;;;;;;-144.78;100.00;59851.00;5015738;28;20230;-69
2021/01/18 09:09:39;;;;;;;6.70;3.83;;;;;;;-144.78;100.00;59851.00;5015482;28;20213;-69
2021/01/18 09:12:11;;;;;;;5.85;3.83;;;;;;;-144.78;100.00;59851.00;5015383;28;20214;-71
2021/01/18 09:14:38;;;;;;;3.97;2.53;;;;;;;-144.78;100.00;59851.00;5015693;28;20813;-70
2021/01/18 09:17:08;;;;;;;9.68;4.50;;;;;;;-144.78;100.00;59851.00;5015287;28;20291;-69
2021/01/18 09:19:51;;;;;;;5.35;3.45;;;;;;;-144.78;100.00;59851.00;5015510;28;20217;-70
2021/01/18 09:22:18;;;;;;;4.20;3.70;;;;;;;-144.78;100.00;59851.00;5015769;28;20374;-70
2021/01/18 09:24:45;;;;;;;4.90;3.35;;;;;;;-144.78;100.00;59851.00;5015468;28;20287;-70
2021/01/18 09:27:13;;;;;;;6.50;4.00;;;;;;;-144.78;100.00;59851.00;5015157;28;20213;-70
2021/01/18 09:29:39;;;;;;;7.53;3.17;;;;;;;-144.78;100.00;59851.00;5032307;28;20228;-70
2021/01/18 09:32:06;;;;;;;4.78;3.20;;;;;;;-144.78;100.00;59851.00;5035051;28;20567;-68
2021/01/18 09:34:33;;;;;;;7.07;3.55;;;;;;;-144.78;100.00;59851.00;5034578;28;20213;-70
2021/01/18 09:37:04;;;;;;;3.38;2.70;;;;;;;-144.78;100.00;59851.00;5034723;28;20210;-69
2021/01/18 09:39:31;;;;;;;3.30;2.50;;;;;;;-144.78;100.00;59851.00;5034812;28;20198;-71
2021/01/18 09:41:59;;;;;;;4.68;3.78;;;;;;;-144.78;100.00;59851.00;5034602;28;20209;-71
2021/01/18 09:44:25;;;;;;;7.35;3.67;;;;;;;-144.78;100.00;59851.00;5034397;28;20266;-71
2021/01/18 09:46:52;;;;;;;6.25;3.60;;;;;;;-144.78;100.00;59851.00;5034459;28;20623;-70
2021/01/18 09:49:24;;;;;;;4.65;3.90;;;;;;;-144.78;100.00;59851.00;5034545;28;20675;-70
2021/01/18 09:51:53;;;;;;;3.35;2.45;;;;;;;-144.78;100.00;59851.00;5034230;28;20208;-71
2021/01/18 09:54:19;;;;;;;4.80;3.53;;;;;;;-144.78;100.00;59851.00;5034399;28;20236;-71
2021/01/18 09:56:48;;;;;;;9.07;4.60;;;;;;;-144.78;100.00;59851.00;5034637;28;20232;-70
2021/01/18 09:59:15;;;;;;;4.68;3.33;;;;;;;-144.78;100.00;59851.00;5034589;28;20208;-71
2021/01/18 10:01:45;;;;;;;4.22;3.00;;;;;;;-144.78;100.00;59851.00;5034798;28;20242;-70
2021/01/18 10:04:21;;;;;;;12.25;4.57;;;;;;;-144.78;100.00;59851.00;5034312;28;20212;-69
2021/01/18 10:06:51;;;;;;;4.03;3.17;;;;;;;-144.78;100.00;59851.00;5034737;28;20209;-72
2021/01/18 10:09:24;;;;;;;8.00;3.70;;;;;;;-144.78;100.00;59851.00;5034026;28;20628;-70
2021/01/18 10:11:51;;;;;;;6.10;4.22;;;;;;;-144.78;100.00;59851.00;5034887;28;20194;-70
2021/01/18 10:14:19;;;;;;;5.95;3.63;;;;;;;-144.78;100.00;59851.00;5034973;28;20209;-71
2021/01/18 10:17:03;;;;;;;3.47;3.15;;;;;;;-144.78;100.00;59851.00;5034514;28;20206;-72
2021/01/18 10:19:29;;;;;;;5.95;2.92;;;;;;;-144.78;100.00;59851.00;5034897;28;20296;-71
2021/01/18 10:21:56;;;;;;;4.38;3.40;;;;;;;-144.78;100.00;59851.00;5034823;28;20635;-69
2021/01/18 10:24:28;;;;;;;3.42;2.50;;;;;;;-144.78;100.00;59851.00;5034671;28;20209;-71
2021/01/18 10:27:02;;;;;;;3.42;3.13;;;;;;;-144.78;100.00;59851.00;5033591;28;20215;-70
2021/01/18 10:29:29;;;;;;;5.10;2.50;;;;;;;-144.78;100.00;59851.00;5033895;28;20320;-70
2021/01/18 10:31:56;;;;;;;6.85;4.28;;;;;;;-144.78;100.00;59851.00;5034461;28;20228;-70
2021/01/18 10:34:31;;;;;;;7.30;3.70;;;;;;;-144.78;100.00;59851.00;5034320;28;20659;-70
2021/01/18 10:37:09;;;;;;;3.33;2.22;;;;;;;-144.78;100.00;59851.00;5033872;28;20240;-71
2021/01/18 10:39:38;;;;;;;2.80;2.58;;;;;;;-144.78;100.00;59851.00;5033706;28;20193;-71
2021/01/18 10:42:06;;;;;;;13.18;5.30;;;;;;;-144.78;100.00;59851.00;5033620;28;20707;-70
2021/01/18 10:44:34;;;;;;;7.15;3.00;;;;;;;-144.78;100.00;59851.00;5033561;28;20299;-70
2021/01/18 10:47:01;;;;;;;4.25;3.63;;;;;;;-144.78;100.00;59851.00;5033612;28;20561;-71
2021/01/18 10:49:29;;;;;;;5.18;2.70;;;;;;;-144.78;100.00;59851.00;5033652;28;20211;-69
2021/01/18 10:52:00;;;;;;;4.55;3.38;;;;;;;-144.78;100.00;59851.00;5034082;28;20213;-69
2021/01/18 10:54:27;;;;;;;3.17;2.08;;;;;;;-144.78;100.00;59851.00;5033621;28;20671;-69
2021/01/18 10:56:56;;;;;;;3.10;2.75;;;;;;;-144.78;100.00;59851.00;5033462;28;20256;-70
2021/01/18 10:59:23;;;;;;;4.07;2.85;;;;;;;-144.78;100.00;59851.00;5033715;28;20228;-69
2021/01/18 11:02:04;;;;;;;6.95;2.70;;;;;;;-144.78;100.00;59851.00;5033748;28;20224;-73
2021/01/18 11:04:34;;;;;;;4.75;3.10;;;;;;;-144.78;100.00;59851.00;5033260;28;20205;-71
2021/01/18 11:07:00;;;;;;;3.20;2.88;;;;;;;-144.78;100.00;59851.00;5032875;28;20640;-70
2021/01/18 11:09:31;;;;;;;5.57;2.05;;;;;;;-144.78;100.00;59851.00;5033249;28;20190;-69
2021/01/18 11:12:01;;;;;;;3.47;1.60;;;;;;;-144.78;100.00;59851.00;5033732;28;20217;-71
2021/01/18 11:14:28;;;;;;;2.28;1.55;;;;;;;-144.78;100.00;59851.00;5032837;28;20297;-71
2021/01/18 11:16:59;;;;;;;4.60;2.40;;;;;;;-144.78;100.00;59851.00;5032996;28;20220;-71
2021/01/18 11:19:26;;;;;;;3.15;2.10;;;;;;;-144.78;100.00;59851.00;5032235;28;20208;-72
2021/01/18 11:21:52;;;;;;;4.13;1.90;;;;;;;-144.78;100.00;59851.00;5032062;28;20216;-71
2021/01/18 11:24:19;;;;;;;5.60;2.95;;;;;;;-144.78;100.00;59851.00;5032265;28;20254;-72
2021/01/18 11:26:48;;;;;;;6.65;2.30;;;;;;;-144.78;100.00;59851.00;5032666;28;20272;-72
2021/01/18 11:29:15;;;;;;;1.73;1.63;;;;;;;-144.78;100.00;59851.00;5032343;28;20709;-72